sensor_id;sensor_type;location;lat;lon;timestamp;temperature;humidity
19365;DHT22;9818;48.382;10.850;2024-01-27T00:00:06;19.50;99.90
19365;DHT22;9818;48.382;10.850;2024-01-27T00:02:35;19.50;99.90
19365;DHT22;9818;48.382;10.850;2024-01-27T00:05:04;19.40;99.90
19365;DHT22;9818;48.382;10.850;2024-01-27T00:07:33;19.40;99.90
19365;DHT22;9818;48.382;10.850;2024-01-27T00:10:03;19.40;99.90
19365;DHT22;9818;48.382;10.850;2024-01-27T00:12:31;19.40;99.90
19365;DHT22;9818;48.382;10.850;2024-01-27T00:15:04;19.40;99.90
19365;DHT22;9818;48.382;10.850;2024-01-27T00:17:32;19.40;99.90
19365;DHT22;9818;48.382;10.850;2024-01-27T00:20:01;19.40;99.90
19365;DHT22;9818;48.382;10.850;2024-01-27T00:22:30;19.40;99.90
19365;DHT22;9818;48.382;10.850;2024-01-27T00:24:59;19.40;99.90
19365;DHT22;9818;48.382;10.850;2024-01-27T00:27:27;19.40;99.90
19365;DHT22;9818;48.382;10.850;2024-01-27T00:29:56;19.40;99.90
19365;DHT22;9818;48.382;10.850;2024-01-27T00:32:27;19.40;99.90
19365;DHT22;9818;48.382;10.850;2024-01-27T00:34:56;19.40;99.90
19365;DHT22;9818;48.382;10.850;2024-01-27T00:37:25;19.40;99.90
19365;DHT22;9818;48.382;10.850;2024-01-27T00:39:54;19.40;99.90
19365;DHT22;9818;48.382;10.850;2024-01-27T00:42:22;19.40;99.90
19365;DHT22;9818;48.382;10.850;2024-01-27T00:44:52;19.40;99.90
19365;DHT22;9818;48.382;10.850;2024-01-27T00:47:20;19.30;99.90
19365;DHT22;9818;48.382;10.850;2024-01-27T00:49:52;19.30;99.90
19365;DHT22;9818;48.382;10.850;2024-01-27T00:52:20;19.30;99.90
19365;DHT22;9818;48.382;10.850;2024-01-27T00:54:49;19.40;99.90
19365;DHT22;9818;48.382;10.850;2024-01-27T00:57:18;19.30;99.90
19365;DHT22;9818;48.382;10.850;2024-01-27T00:59:47;19.40;99.90
19365;DHT22;9818;48.382;10.850;2024-01-27T01:02:15;19.30;99.90
19365;DHT22;9818;48.382;10.850;2024-01-27T01:04:44;19.30;99.90
19365;DHT22;9818;48.382;10.850;2024-01-27T01:07:16;19.30;99.90
19365;DHT22;9818;48.382;10.850;2024-01-27T01:09:45;19.30;99.90
19365;DHT22;9818;48.382;10.850;2024-01-27T01:12:14;19.30;99.90
19365;DHT22;9818;48.382;10.850;2024-01-27T01:14:43;19.30;99.90
19365;DHT22;9818;48.382;10.850;2024-01-27T01:17:12;19.30;99.90
19365;DHT22;9818;48.382;10.850;2024-01-27T01:19:41;19.30;99.90
19365;DHT22;9818;48.382;10.850;2024-01-27T01:22:10;19.30;99.90
19365;DHT22;9818;48.382;10.850;2024-01-27T01:24:42;19.30;99.90
19365;DHT22;9818;48.382;10.850;2024-01-27T01:27:10;19.30;99.90
19365;DHT22;9818;48.382;10.850;2024-01-27T01:29:39;19.30;99.90
19365;DHT22;9818;48.382;10.850;2024-01-27T01:32:08;19.30;99.90
19365;DHT22;9818;48.382;10.850;2024-01-27T01:34:37;19.30;99.90
19365;DHT22;9818;48.382;10.850;2024-01-27T01:37:05;19.30;99.90
19365;DHT22;9818;48.382;10.850;2024-01-27T01:39:34;19.30;99.90
19365;DHT22;9818;48.382;10.850;2024-01-27T01:42:05;19.20;99.90
19365;DHT22;9818;48.382;10.850;2024-01-27T01:44:34;19.20;99.90
19365;DHT22;9818;48.382;10.850;2024-01-27T01:47:03;19.30;99.90
19365;DHT22;9818;48.382;10.850;2024-01-27T01:49:32;19.20;99.90
19365;DHT22;9818;48.382;10.850;2024-01-27T01:52:02;19.20;99.90
19365;DHT22;9818;48.382;10.850;2024-01-27T01:54:31;19.20;99.90
19365;DHT22;9818;48.382;10.850;2024-01-27T01:57:00;19.20;99.90
19365;DHT22;9818;48.382;10.850;2024-01-27T01:59:31;19.20;99.90
19365;DHT22;9818;48.382;10.850;2024-01-27T02:02:06;19.20;99.90
19365;DHT22;9818;48.382;10.850;2024-01-27T02:04:40;19.20;99.90
19365;DHT22;9818;48.382;10.850;2024-01-27T02:07:08;19.20;99.90
19365;DHT22;9818;48.382;10.850;2024-01-27T02:09:37;19.30;99.90
19365;DHT22;9818;48.382;10.850;2024-01-27T02:12:07;19.20;99.90
19365;DHT22;9818;48.382;10.850;2024-01-27T02:14:38;19.20;99.90
19365;DHT22;9818;48.382;10.850;2024-01-27T02:17:07;19.20;99.90
19365;DHT22;9818;48.382;10.850;2024-01-27T02:19:35;19.20;99.90
19365;DHT22;9818;48.382;10.850;2024-01-27T02:22:04;19.20;99.90
19365;DHT22;9818;48.382;10.850;2024-01-27T02:24:35;19.20;99.90
19365;DHT22;9818;48.382;10.850;2024-01-27T02:27:04;19.20;99.90
19365;DHT22;9818;48.382;10.850;2024-01-27T02:29:33;19.20;99.90
19365;DHT22;9818;48.382;10.850;2024-01-27T02:32:02;19.20;99.90
19365;DHT22;9818;48.382;10.850;2024-01-27T02:34:30;19.20;99.90
19365;DHT22;9818;48.382;10.850;2024-01-27T02:36:59;19.20;99.90
19365;DHT22;9818;48.382;10.850;2024-01-27T02:39:28;19.20;99.90
19365;DHT22;9818;48.382;10.850;2024-01-27T02:41:59;19.20;99.90
19365;DHT22;9818;48.382;10.850;2024-01-27T02:44:28;19.20;99.90
19365;DHT22;9818;48.382;10.850;2024-01-27T02:46:57;19.20;99.90
19365;DHT22;9818;48.382;10.850;2024-01-27T02:49:25;19.20;99.90
19365;DHT22;9818;48.382;10.850;2024-01-27T02:51:54;19.20;99.90
19365;DHT22;9818;48.382;10.850;2024-01-27T02:54:23;19.20;99.90
19365;DHT22;9818;48.382;10.850;2024-01-27T02:56:53;19.20;99.90
19365;DHT22;9818;48.382;10.850;2024-01-27T02:59:24;19.10;99.90
19365;DHT22;9818;48.382;10.850;2024-01-27T03:01:52;19.20;99.90
19365;DHT22;9818;48.382;10.850;2024-01-27T03:04:22;19.20;99.90
19365;DHT22;9818;48.382;10.850;2024-01-27T03:06:51;19.20;99.90
19365;DHT22;9818;48.382;10.850;2024-01-27T03:09:20;19.10;99.90
19365;DHT22;9818;48.382;10.850;2024-01-27T03:11:49;19.20;99.90
19365;DHT22;9818;48.382;10.850;2024-01-27T03:14:17;19.10;99.90
19365;DHT22;9818;48.382;10.850;2024-01-27T03:16:49;19.10;99.90
19365;DHT22;9818;48.382;10.850;2024-01-27T03:19:15;19.10;99.90
19365;DHT22;9818;48.382;10.850;2024-01-27T03:21:44;19.10;99.90
19365;DHT22;9818;48.382;10.850;2024-01-27T03:24:12;19.10;99.90
19365;DHT22;9818;48.382;10.850;2024-01-27T03:26:41;19.10;99.90
19365;DHT22;9818;48.382;10.850;2024-01-27T03:29:10;19.10;99.90
19365;DHT22;9818;48.382;10.850;2024-01-27T03:31:38;19.10;99.90
19365;DHT22;9818;48.382;10.850;2024-01-27T03:34:10;19.10;99.90
19365;DHT22;9818;48.382;10.850;2024-01-27T03:36:38;19.10;99.90
19365;DHT22;9818;48.382;10.850;2024-01-27T03:39:07;19.10;99.90
19365;DHT22;9818;48.382;10.850;2024-01-27T03:41:36;19.10;99.90
19365;DHT22;9818;48.382;10.850;2024-01-27T03:44:04;19.10;99.90
19365;DHT22;9818;48.382;10.850;2024-01-27T03:46:33;19.10;99.90
19365;DHT22;9818;48.382;10.850;2024-01-27T03:49:03;19.10;99.90
19365;DHT22;9818;48.382;10.850;2024-01-27T03:51:34;19.10;99.90
19365;DHT22;9818;48.382;10.850;2024-01-27T03:54:03;19.10;99.90
19365;DHT22;9818;48.382;10.850;2024-01-27T03:56:32;19.00;99.90
19365;DHT22;9818;48.382;10.850;2024-01-27T03:59:00;19.10;99.90
19365;DHT22;9818;48.382;10.850;2024-01-27T04:01:31;19.00;99.90
19365;DHT22;9818;48.382;10.850;2024-01-27T04:04:00;19.00;99.90
19365;DHT22;9818;48.382;10.850;2024-01-27T04:06:28;19.00;99.90
19365;DHT22;9818;48.382;10.850;2024-01-27T04:09:00;19.00;99.90
19365;DHT22;9818;48.382;10.850;2024-01-27T04:11:28;19.10;99.90
19365;DHT22;9818;48.382;10.850;2024-01-27T04:13:57;19.10;99.90
19365;DHT22;9818;48.382;10.850;2024-01-27T04:16:27;19.00;99.90
19365;DHT22;9818;48.382;10.850;2024-01-27T04:18:56;19.00;99.90
19365;DHT22;9818;48.382;10.850;2024-01-27T04:21:25;19.10;99.90
19365;DHT22;9818;48.382;10.850;2024-01-27T04:23:53;19.00;99.90
19365;DHT22;9818;48.382;10.850;2024-01-27T04:26:25;19.00;99.90
19365;DHT22;9818;48.382;10.850;2024-01-27T04:28:53;19.00;99.90
19365;DHT22;9818;48.382;10.850;2024-01-27T04:31:23;19.00;99.90
19365;DHT22;9818;48.382;10.850;2024-01-27T04:33:51;19.00;99.90
19365;DHT22;9818;48.382;10.850;2024-01-27T04:36:27;19.00;99.90
19365;DHT22;9818;48.382;10.850;2024-01-27T04:38:59;19.00;99.90
19365;DHT22;9818;48.382;10.850;2024-01-27T04:41:30;19.00;99.90
19365;DHT22;9818;48.382;10.850;2024-01-27T04:43:59;19.00;99.90
19365;DHT22;9818;48.382;10.850;2024-01-27T04:46:28;19.00;99.90
19365;DHT22;9818;48.382;10.850;2024-01-27T04:48:56;19.00;99.90
19365;DHT22;9818;48.382;10.850;2024-01-27T04:51:25;19.00;99.90
19365;DHT22;9818;48.382;10.850;2024-01-27T04:53:54;19.00;99.90
19365;DHT22;9818;48.382;10.850;2024-01-27T04:56:22;19.00;99.90
19365;DHT22;9818;48.382;10.850;2024-01-27T04:58:54;19.00;99.90
19365;DHT22;9818;48.382;10.850;2024-01-27T05:01:22;19.00;99.90
19365;DHT22;9818;48.382;10.850;2024-01-27T05:03:51;19.00;99.90
19365;DHT22;9818;48.382;10.850;2024-01-27T05:06:20;19.00;99.90
19365;DHT22;9818;48.382;10.850;2024-01-27T05:08:49;19.00;99.90
19365;DHT22;9818;48.382;10.850;2024-01-27T05:11:25;19.00;99.90
19365;DHT22;9818;48.382;10.850;2024-01-27T05:13:56;18.90;99.90
19365;DHT22;9818;48.382;10.850;2024-01-27T05:16:25;19.00;99.90
19365;DHT22;9818;48.382;10.850;2024-01-27T05:18:54;18.90;99.90
19365;DHT22;9818;48.382;10.850;2024-01-27T05:21:22;18.90;99.90
19365;DHT22;9818;48.382;10.850;2024-01-27T05:23:51;18.90;99.90
19365;DHT22;9818;48.382;10.850;2024-01-27T05:26:20;18.90;99.90
19365;DHT22;9818;48.382;10.850;2024-01-27T05:28:49;18.90;99.90
19365;DHT22;9818;48.382;10.850;2024-01-27T05:31:20;18.90;99.90
19365;DHT22;9818;48.382;10.850;2024-01-27T05:33:49;18.90;99.90
19365;DHT22;9818;48.382;10.850;2024-01-27T05:36:18;18.90;99.90
19365;DHT22;9818;48.382;10.850;2024-01-27T05:38:46;18.90;99.90
19365;DHT22;9818;48.382;10.850;2024-01-27T05:41:15;18.90;99.90
19365;DHT22;9818;48.382;10.850;2024-01-27T05:43:44;18.90;99.90
19365;DHT22;9818;48.382;10.850;2024-01-27T05:46:12;18.90;99.90
19365;DHT22;9818;48.382;10.850;2024-01-27T05:48:44;18.90;99.90
19365;DHT22;9818;48.382;10.850;2024-01-27T05:51:12;18.90;99.90
19365;DHT22;9818;48.382;10.850;2024-01-27T05:53:41;18.90;99.90
19365;DHT22;9818;48.382;10.850;2024-01-27T05:56:10;18.90;99.90
19365;DHT22;9818;48.382;10.850;2024-01-27T05:58:38;18.90;99.90
19365;DHT22;9818;48.382;10.850;2024-01-27T06:01:07;18.90;99.90
19365;DHT22;9818;48.382;10.850;2024-01-27T06:03:36;18.80;99.90
19365;DHT22;9818;48.382;10.850;2024-01-27T06:06:07;18.80;99.90
19365;DHT22;9818;48.382;10.850;2024-01-27T06:08:36;18.90;99.90
19365;DHT22;9818;48.382;10.850;2024-01-27T06:11:05;18.80;99.90
19365;DHT22;9818;48.382;10.850;2024-01-27T06:13:34;18.90;99.90
19365;DHT22;9818;48.382;10.850;2024-01-27T06:16:07;18.80;99.90
19365;DHT22;9818;48.382;10.850;2024-01-27T06:18:36;18.80;99.90
19365;DHT22;9818;48.382;10.850;2024-01-27T06:21:08;18.80;99.90
19365;DHT22;9818;48.382;10.850;2024-01-27T06:23:36;18.80;99.90
19365;DHT22;9818;48.382;10.850;2024-01-27T06:26:06;18.80;99.90
19365;DHT22;9818;48.382;10.850;2024-01-27T06:28:34;18.80;99.90
19365;DHT22;9818;48.382;10.850;2024-01-27T06:31:04;18.80;99.90
19365;DHT22;9818;48.382;10.850;2024-01-27T06:33:34;18.80;99.90
19365;DHT22;9818;48.382;10.850;2024-01-27T06:36:03;18.80;99.90
19365;DHT22;9818;48.382;10.850;2024-01-27T06:38:37;18.80;99.90
19365;DHT22;9818;48.382;10.850;2024-01-27T06:41:06;18.80;99.90
19365;DHT22;9818;48.382;10.850;2024-01-27T06:43:35;18.80;99.90
19365;DHT22;9818;48.382;10.850;2024-01-27T06:46:04;18.80;99.90
19365;DHT22;9818;48.382;10.850;2024-01-27T06:48:32;18.80;99.90
19365;DHT22;9818;48.382;10.850;2024-01-27T06:51:01;18.80;99.90
19365;DHT22;9818;48.382;10.850;2024-01-27T06:53:30;18.80;99.90
19365;DHT22;9818;48.382;10.850;2024-01-27T06:56:01;18.80;99.90
19365;DHT22;9818;48.382;10.850;2024-01-27T06:58:30;18.80;99.90
19365;DHT22;9818;48.382;10.850;2024-01-27T07:00:59;18.80;99.90
19365;DHT22;9818;48.382;10.850;2024-01-27T07:03:27;18.80;99.90
19365;DHT22;9818;48.382;10.850;2024-01-27T07:05:56;18.70;99.90
19365;DHT22;9818;48.382;10.850;2024-01-27T07:08:26;18.70;99.90
19365;DHT22;9818;48.382;10.850;2024-01-27T07:10:55;18.70;99.90
19365;DHT22;9818;48.382;10.850;2024-01-27T07:13:26;18.70;99.90
19365;DHT22;9818;48.382;10.850;2024-01-27T07:15:55;18.70;99.90
19365;DHT22;9818;48.382;10.850;2024-01-27T07:18:24;18.70;99.90
19365;DHT22;9818;48.382;10.850;2024-01-27T07:20:57;18.70;99.90
19365;DHT22;9818;48.382;10.850;2024-01-27T07:23:26;18.70;99.90
19365;DHT22;9818;48.382;10.850;2024-01-27T07:25:55;18.70;99.90
19365;DHT22;9818;48.382;10.850;2024-01-27T07:28:31;18.70;99.90
19365;DHT22;9818;48.382;10.850;2024-01-27T07:31:00;18.70;99.90
19365;DHT22;9818;48.382;10.850;2024-01-27T07:33:29;18.70;99.90
19365;DHT22;9818;48.382;10.850;2024-01-27T07:36:00;18.70;99.90
19365;DHT22;9818;48.382;10.850;2024-01-27T07:38:29;18.70;99.90
19365;DHT22;9818;48.382;10.850;2024-01-27T07:40:57;18.70;99.90
19365;DHT22;9818;48.382;10.850;2024-01-27T07:43:27;18.70;99.90
19365;DHT22;9818;48.382;10.850;2024-01-27T07:45:58;18.70;99.90
19365;DHT22;9818;48.382;10.850;2024-01-27T07:48:27;18.70;99.90
19365;DHT22;9818;48.382;10.850;2024-01-27T07:50:56;18.70;99.90
19365;DHT22;9818;48.382;10.850;2024-01-27T07:53:25;18.70;99.90
19365;DHT22;9818;48.382;10.850;2024-01-27T07:55:53;18.70;99.90
19365;DHT22;9818;48.382;10.850;2024-01-27T07:58:22;18.60;99.90
19365;DHT22;9818;48.382;10.850;2024-01-27T08:00:51;18.70;99.90
19365;DHT22;9818;48.382;10.850;2024-01-27T08:03:22;18.70;99.90
19365;DHT22;9818;48.382;10.850;2024-01-27T08:05:51;18.70;99.90
19365;DHT22;9818;48.382;10.850;2024-01-27T08:08:21;18.70;99.90
19365;DHT22;9818;48.382;10.850;2024-01-27T08:10:50;18.70;99.90
19365;DHT22;9818;48.382;10.850;2024-01-27T08:13:18;18.60;99.90
19365;DHT22;9818;48.382;10.850;2024-01-27T08:15:47;18.70;99.90
19365;DHT22;9818;48.382;10.850;2024-01-27T08:18:16;18.70;99.90
19365;DHT22;9818;48.382;10.850;2024-01-27T08:20:47;18.60;99.90
19365;DHT22;9818;48.382;10.850;2024-01-27T08:23:16;18.70;99.90
19365;DHT22;9818;48.382;10.850;2024-01-27T08:25:44;18.70;99.90
19365;DHT22;9818;48.382;10.850;2024-01-27T08:28:17;18.70;99.90
19365;DHT22;9818;48.382;10.850;2024-01-27T08:30:46;18.70;99.90
19365;DHT22;9818;48.382;10.850;2024-01-27T08:33:15;18.70;99.90
19365;DHT22;9818;48.382;10.850;2024-01-27T08:35:45;18.70;99.90
19365;DHT22;9818;48.382;10.850;2024-01-27T08:38:17;18.70;99.90
19365;DHT22;9818;48.382;10.850;2024-01-27T08:40:45;18.70;99.90
19365;DHT22;9818;48.382;10.850;2024-01-27T08:43:14;18.70;99.90
19365;DHT22;9818;48.382;10.850;2024-01-27T08:45:43;18.70;99.90
19365;DHT22;9818;48.382;10.850;2024-01-27T08:48:11;18.70;99.90
19365;DHT22;9818;48.382;10.850;2024-01-27T08:50:41;18.70;99.90
19365;DHT22;9818;48.382;10.850;2024-01-27T08:53:09;18.80;99.90
19365;DHT22;9818;48.382;10.850;2024-01-27T08:55:41;18.80;99.90
19365;DHT22;9818;48.382;10.850;2024-01-27T08:58:10;18.80;99.90
19365;DHT22;9818;48.382;10.850;2024-01-27T09:00:38;18.80;99.90
19365;DHT22;9818;48.382;10.850;2024-01-27T09:03:07;18.80;99.90
19365;DHT22;9818;48.382;10.850;2024-01-27T09:05:36;18.80;99.90
19365;DHT22;9818;48.382;10.850;2024-01-27T09:08:06;18.80;99.90
19365;DHT22;9818;48.382;10.850;2024-01-27T09:10:35;18.80;99.90
19365;DHT22;9818;48.382;10.850;2024-01-27T09:13:06;18.90;99.90
19365;DHT22;9818;48.382;10.850;2024-01-27T09:15:35;18.80;99.90
19365;DHT22;9818;48.382;10.850;2024-01-27T09:18:06;18.90;99.90
19365;DHT22;9818;48.382;10.850;2024-01-27T09:20:35;18.90;99.90
19365;DHT22;9818;48.382;10.850;2024-01-27T09:23:04;18.90;99.90
19365;DHT22;9818;48.382;10.850;2024-01-27T09:25:32;18.90;99.90
19365;DHT22;9818;48.382;10.850;2024-01-27T09:28:01;19.00;99.90
19365;DHT22;9818;48.382;10.850;2024-01-27T09:30:32;19.00;99.90
19365;DHT22;9818;48.382;10.850;2024-01-27T09:33:01;19.00;99.90
19365;DHT22;9818;48.382;10.850;2024-01-27T09:35:30;19.00;99.90
19365;DHT22;9818;48.382;10.850;2024-01-27T09:37:58;19.00;99.90
19365;DHT22;9818;48.382;10.850;2024-01-27T09:40:27;19.10;99.90
19365;DHT22;9818;48.382;10.850;2024-01-27T09:42:59;19.10;99.90
19365;DHT22;9818;48.382;10.850;2024-01-27T09:45:28;19.10;99.90
19365;DHT22;9818;48.382;10.850;2024-01-27T09:48:00;19.10;99.90
19365;DHT22;9818;48.382;10.850;2024-01-27T09:50:29;19.10;99.90
19365;DHT22;9818;48.382;10.850;2024-01-27T09:52:58;19.20;99.90
19365;DHT22;9818;48.382;10.850;2024-01-27T09:55:26;19.20;99.90
19365;DHT22;9818;48.382;10.850;2024-01-27T09:57:55;19.20;99.90
19365;DHT22;9818;48.382;10.850;2024-01-27T10:00:24;19.20;99.90
19365;DHT22;9818;48.382;10.850;2024-01-27T10:02:54;19.30;99.90
19365;DHT22;9818;48.382;10.850;2024-01-27T10:05:27;19.30;99.90
19365;DHT22;9818;48.382;10.850;2024-01-27T10:07:56;19.30;99.90
19365;DHT22;9818;48.382;10.850;2024-01-27T10:10:25;19.30;99.90
19365;DHT22;9818;48.382;10.850;2024-01-27T10:12:56;19.30;99.90
19365;DHT22;9818;48.382;10.850;2024-01-27T10:15:27;19.40;99.90
19365;DHT22;9818;48.382;10.850;2024-01-27T10:18:04;19.40;99.90
19365;DHT22;9818;48.382;10.850;2024-01-27T10:20:36;19.40;99.90
19365;DHT22;9818;48.382;10.850;2024-01-27T10:23:11;19.40;99.90
19365;DHT22;9818;48.382;10.850;2024-01-27T10:25:40;19.50;99.90
19365;DHT22;9818;48.382;10.850;2024-01-27T10:28:09;19.50;99.90
19365;DHT22;9818;48.382;10.850;2024-01-27T10:30:38;19.50;99.90
19365;DHT22;9818;48.382;10.850;2024-01-27T10:33:08;19.50;99.90
19365;DHT22;9818;48.382;10.850;2024-01-27T10:35:39;19.60;99.90
19365;DHT22;9818;48.382;10.850;2024-01-27T10:38:08;19.60;99.90
19365;DHT22;9818;48.382;10.850;2024-01-27T10:40:37;19.60;99.90
19365;DHT22;9818;48.382;10.850;2024-01-27T10:43:07;19.60;99.90
19365;DHT22;9818;48.382;10.850;2024-01-27T10:45:37;19.60;99.90
19365;DHT22;9818;48.382;10.850;2024-01-27T10:48:07;19.70;99.90
19365;DHT22;9818;48.382;10.850;2024-01-27T10:50:40;19.70;99.90
19365;DHT22;9818;48.382;10.850;2024-01-27T10:53:16;19.70;99.90
19365;DHT22;9818;48.382;10.850;2024-01-27T10:55:47;19.70;99.90
19365;DHT22;9818;48.382;10.850;2024-01-27T10:58:17;19.80;99.90
19365;DHT22;9818;48.382;10.850;2024-01-27T11:00:48;19.70;99.90
19365;DHT22;9818;48.382;10.850;2024-01-27T11:03:19;19.80;99.90
19365;DHT22;9818;48.382;10.850;2024-01-27T11:05:51;19.80;99.90
19365;DHT22;9818;48.382;10.850;2024-01-27T11:08:20;19.50;1.00
19365;DHT22;9818;48.382;10.850;2024-01-27T11:10:53;19.50;99.90
19365;DHT22;9818;48.382;10.850;2024-01-27T11:13:22;19.60;99.90
19365;DHT22;9818;48.382;10.850;2024-01-27T11:15:52;19.70;99.90
19365;DHT22;9818;48.382;10.850;2024-01-27T11:18:21;19.80;99.90
19365;DHT22;9818;48.382;10.850;2024-01-27T11:20:56;19.80;99.90
19365;DHT22;9818;48.382;10.850;2024-01-27T11:23:32;19.80;99.90
19365;DHT22;9818;48.382;10.850;2024-01-27T11:26:05;19.90;99.90
19365;DHT22;9818;48.382;10.850;2024-01-27T11:28:34;19.90;99.90
19365;DHT22;9818;48.382;10.850;2024-01-27T11:31:06;19.90;99.90
19365;DHT22;9818;48.382;10.850;2024-01-27T11:33:41;19.90;99.90
19365;DHT22;9818;48.382;10.850;2024-01-27T11:36:19;20.00;99.90
19365;DHT22;9818;48.382;10.850;2024-01-27T11:38:49;20.00;99.90
19365;DHT22;9818;48.382;10.850;2024-01-27T11:41:24;20.00;99.90
19365;DHT22;9818;48.382;10.850;2024-01-27T11:43:53;20.00;99.90
19365;DHT22;9818;48.382;10.850;2024-01-27T11:46:22;20.00;99.90
19365;DHT22;9818;48.382;10.850;2024-01-27T11:48:51;20.00;99.90
19365;DHT22;9818;48.382;10.850;2024-01-27T11:51:22;20.00;96.30
19365;DHT22;9818;48.382;10.850;2024-01-27T11:53:54;20.00;94.60
19365;DHT22;9818;48.382;10.850;2024-01-27T11:56:22;20.00;90.80
19365;DHT22;9818;48.382;10.850;2024-01-27T11:58:51;20.10;88.60
19365;DHT22;9818;48.382;10.850;2024-01-27T12:01:20;20.10;73.80
19365;DHT22;9818;48.382;10.850;2024-01-27T12:03:49;20.10;57.00
19365;DHT22;9818;48.382;10.850;2024-01-27T12:06:18;20.10;51.10
19365;DHT22;9818;48.382;10.850;2024-01-27T12:08:52;20.10;52.30
19365;DHT22;9818;48.382;10.850;2024-01-27T12:11:22;20.20;88.20
19365;DHT22;9818;48.382;10.850;2024-01-27T12:13:51;20.20;96.90
19365;DHT22;9818;48.382;10.850;2024-01-27T12:16:21;20.30;88.20
19365;DHT22;9818;48.382;10.850;2024-01-27T12:18:52;20.40;63.80
19365;DHT22;9818;48.382;10.850;2024-01-27T12:21:21;20.50;59.60
19365;DHT22;9818;48.382;10.850;2024-01-27T12:23:55;20.50;51.30
19365;DHT22;9818;48.382;10.850;2024-01-27T12:26:25;20.60;42.50
19365;DHT22;9818;48.382;10.850;2024-01-27T12:28:54;20.60;38.60
19365;DHT22;9818;48.382;10.850;2024-01-27T12:31:24;20.60;18.80
19365;DHT22;9818;48.382;10.850;2024-01-27T12:33:55;20.60;1.00
19365;DHT22;9818;48.382;10.850;2024-01-27T12:36:25;20.70;1.00
19365;DHT22;9818;48.382;10.850;2024-01-27T12:38:57;20.80;1.00
19365;DHT22;9818;48.382;10.850;2024-01-27T12:41:27;20.80;1.00
19365;DHT22;9818;48.382;10.850;2024-01-27T12:43:58;20.90;1.00
19365;DHT22;9818;48.382;10.850;2024-01-27T12:46:27;20.90;1.00
19365;DHT22;9818;48.382;10.850;2024-01-27T12:48:56;21.10;1.00
19365;DHT22;9818;48.382;10.850;2024-01-27T12:51:24;21.10;1.00
19365;DHT22;9818;48.382;10.850;2024-01-27T12:53:56;21.30;1.00
19365;DHT22;9818;48.382;10.850;2024-01-27T12:56:24;21.40;1.00
19365;DHT22;9818;48.382;10.850;2024-01-27T12:58:53;21.50;1.00
19365;DHT22;9818;48.382;10.850;2024-01-27T13:01:22;21.70;1.00
19365;DHT22;9818;48.382;10.850;2024-01-27T13:03:51;22.00;1.00
19365;DHT22;9818;48.382;10.850;2024-01-27T13:06:19;22.10;1.00
19365;DHT22;9818;48.382;10.850;2024-01-27T13:08:48;22.20;1.00
19365;DHT22;9818;48.382;10.850;2024-01-27T13:11:20;22.20;1.00
19365;DHT22;9818;48.382;10.850;2024-01-27T13:13:50;22.20;99.90
19365;DHT22;9818;48.382;10.850;2024-01-27T13:16:18;22.20;99.90
19365;DHT22;9818;48.382;10.850;2024-01-27T13:18:47;22.50;99.90
19365;DHT22;9818;48.382;10.850;2024-01-27T13:21:16;22.70;99.90
19365;DHT22;9818;48.382;10.850;2024-01-27T13:23:44;22.80;99.90
19365;DHT22;9818;48.382;10.850;2024-01-27T13:26:13;22.90;99.90
19365;DHT22;9818;48.382;10.850;2024-01-27T13:28:45;22.90;99.90
19365;DHT22;9818;48.382;10.850;2024-01-27T13:31:14;23.10;99.90
19365;DHT22;9818;48.382;10.850;2024-01-27T13:33:43;23.20;99.90
19365;DHT22;9818;48.382;10.850;2024-01-27T13:36:12;23.30;99.90
19365;DHT22;9818;48.382;10.850;2024-01-27T13:38:42;23.30;99.90
19365;DHT22;9818;48.382;10.850;2024-01-27T13:41:10;23.30;99.90
19365;DHT22;9818;48.382;10.850;2024-01-27T13:43:39;23.30;99.90
19365;DHT22;9818;48.382;10.850;2024-01-27T13:46:10;23.40;99.90
19365;DHT22;9818;48.382;10.850;2024-01-27T13:48:39;23.40;99.90
19365;DHT22;9818;48.382;10.850;2024-01-27T13:51:09;23.50;99.90
19365;DHT22;9818;48.382;10.850;2024-01-27T13:53:37;23.20;99.90
19365;DHT22;9818;48.382;10.850;2024-01-27T13:56:06;23.00;99.90
19365;DHT22;9818;48.382;10.850;2024-01-27T13:58:35;22.90;99.90
19365;DHT22;9818;48.382;10.850;2024-01-27T14:01:04;22.80;99.90
19365;DHT22;9818;48.382;10.850;2024-01-27T14:03:36;22.70;99.90
19365;DHT22;9818;48.382;10.850;2024-01-27T14:06:06;22.70;99.90
19365;DHT22;9818;48.382;10.850;2024-01-27T14:08:38;22.60;99.90
19365;DHT22;9818;48.382;10.850;2024-01-27T14:11:07;22.50;99.90
19365;DHT22;9818;48.382;10.850;2024-01-27T14:13:35;22.50;99.90
19365;DHT22;9818;48.382;10.850;2024-01-27T14:16:04;22.50;99.90
19365;DHT22;9818;48.382;10.850;2024-01-27T14:18:36;22.40;99.90
19365;DHT22;9818;48.382;10.850;2024-01-27T14:21:05;22.40;99.90
19365;DHT22;9818;48.382;10.850;2024-01-27T14:23:33;22.50;99.90
19365;DHT22;9818;48.382;10.850;2024-01-27T14:26:03;22.50;99.90
19365;DHT22;9818;48.382;10.850;2024-01-27T14:28:33;22.40;99.90
19365;DHT22;9818;48.382;10.850;2024-01-27T14:31:02;22.40;99.90
19365;DHT22;9818;48.382;10.850;2024-01-27T14:33:31;22.40;99.90
19365;DHT22;9818;48.382;10.850;2024-01-27T14:36:03;22.30;99.90
19365;DHT22;9818;48.382;10.850;2024-01-27T14:38:32;22.20;99.90
19365;DHT22;9818;48.382;10.850;2024-01-27T14:41:00;22.10;99.90
19365;DHT22;9818;48.382;10.850;2024-01-27T14:43:29;21.80;99.90
19365;DHT22;9818;48.382;10.850;2024-01-27T14:45:58;21.60;99.90
19365;DHT22;9818;48.382;10.850;2024-01-27T14:48:27;21.70;1.00
19365;DHT22;9818;48.382;10.850;2024-01-27T14:50:55;21.80;1.00
19365;DHT22;9818;48.382;10.850;2024-01-27T14:53:28;21.90;1.00
19365;DHT22;9818;48.382;10.850;2024-01-27T14:55:57;21.90;1.00
19365;DHT22;9818;48.382;10.850;2024-01-27T14:58:26;21.80;1.00
19365;DHT22;9818;48.382;10.850;2024-01-27T15:00:54;21.80;1.00
19365;DHT22;9818;48.382;10.850;2024-01-27T15:03:24;21.80;1.00
19365;DHT22;9818;48.382;10.850;2024-01-27T15:05:53;21.70;1.00
19365;DHT22;9818;48.382;10.850;2024-01-27T15:08:22;21.70;1.00
19365;DHT22;9818;48.382;10.850;2024-01-27T15:10:54;21.70;1.00
19365;DHT22;9818;48.382;10.850;2024-01-27T15:13:22;21.60;1.00
19365;DHT22;9818;48.382;10.850;2024-01-27T15:15:51;21.60;1.00
19365;DHT22;9818;48.382;10.850;2024-01-27T15:18:20;21.60;1.00
19365;DHT22;9818;48.382;10.850;2024-01-27T15:20:50;21.60;1.00
19365;DHT22;9818;48.382;10.850;2024-01-27T15:23:19;21.50;1.00
19365;DHT22;9818;48.382;10.850;2024-01-27T15:25:53;21.50;1.00
19365;DHT22;9818;48.382;10.850;2024-01-27T15:28:22;21.50;1.00
19365;DHT22;9818;48.382;10.850;2024-01-27T15:30:50;21.40;1.00
19365;DHT22;9818;48.382;10.850;2024-01-27T15:33:20;21.40;1.00
19365;DHT22;9818;48.382;10.850;2024-01-27T15:35:49;21.40;1.00
19365;DHT22;9818;48.382;10.850;2024-01-27T15:38:18;21.30;1.00
19365;DHT22;9818;48.382;10.850;2024-01-27T15:40:47;21.30;1.00
19365;DHT22;9818;48.382;10.850;2024-01-27T15:43:18;21.30;1.00
19365;DHT22;9818;48.382;10.850;2024-01-27T15:45:47;21.30;1.00